Accueil
METAR-TAF:

METAR-TAF

Aéroports :

Aéroport Cristiano-Ronaldo

Funchal, Madère, Portugal

latitude: 32-41-52N, longitude: 016-46-28W, altitude: 59 m

Observation

Le bulletin a été fait il y a 42 minutes, à 00:30 UTC
Vent 10 kt de nord, variant entre nord-ouest et nord/nord-est
Température 20°C
Humidité 64%
Pression 1024 hPa
Visibilité 10 km ou plus
Quelques nuages à une hauteur de 1600 ft

METAR: LPMA 060030Z 36010KT 320V020 9999 FEW016 20/13 Q1024

Heure: 02:12 (01:12 UTC)

Prévision

Le bulletin a été fait il y a 2 heures et 12 minutes, à 23:00 UTC
Prévision valable du 06 à 00 UTC au 06 à 24 UTC
Vent 10 kt de nord
Visibilité 10 km ou plus
Nuages épars à une hauteur de 1600 ft
Probabilité 30% :
Temporairement
du 06 à 09 UTC au 06 à 21 UTC
Vent 15 kt de nord avec des rafales jusqu'à 25 kt

TAF: LPMA 052300Z 0600/0624 36010KT 9999 SCT016 PROB30 TEMPO 0609/0621 01015G25KT

Observations et prévisions météorologiques de plus de 4000 aéroports (messages METAR et TAF).

Les stations disponibles sont représentées par des disques jaunes et rouges sur la carte.

Passer la souris dessus pour voir le nom de la station.

Cliquer dessus pour voir les observations et prévisions météorologiques.

Pour changer de carte: cliquez sur les boutons verts avec une croix noire pour zoomer, sur le bouton vert avec un tiret pour effectuer un zoom arrière, ou sur les flèches vertes pour les cartes adjacentes.


METAR-TAF: